Time;durP1;ratioP1;P1;durP2;ratioP2;P2;SDS_P1;SDS_P2;PMS_P1;PMS_P2;Temp;Humidity;BMP_temperature;BMP_pressure;BME280_temperature;BME280_humidity;BME280_pressure;Samples;Min_cycle;Max_cycle;Signal;HPM_P1;HPM_P2
2021/12/17 00:05:07;;;;;;;;;;;179.50;2252.80;;;;;;5011711;28;19937;-74
2021/12/17 00:07:35;;;;;;;;;;;179.50;2252.80;;;;;;4994453;28;19996;-74
2021/12/17 00:10:03;;;;;;;;;;;179.40;2252.80;;;;;;5011356;28;19905;-77
2021/12/17 00:12:29;;;;;;;;;;;179.40;2252.80;;;;;;4994420;28;19992;-74
2021/12/17 00:14:56;;;;;;;;;;;179.40;2252.80;;;;;;5011026;28;19917;-75
2021/12/17 00:17:27;;;;;;;;;;;179.40;2252.80;;;;;;4991565;28;20326;-78
2021/12/17 00:20:19;;;;;;;;;;;179.50;2252.80;;;;;;4991086;28;19905;-79
2021/12/17 00:49:59;;;;;;;;;;;179.30;2252.80;;;;;;5062349;28;19927;-79
2021/12/17 00:52:28;;;;;;;;;;;154.50;2252.80;;;;;;5045455;28;19931;-75
2021/12/17 00:54:53;;;;;;;;;;;154.50;2252.80;;;;;;5043284;28;19956;-74
2021/12/17 00:57:23;;;;;;;;;;;154.40;2252.80;;;;;;5062858;28;19950;-78
2021/12/17 00:59:50;;;;;;;;;;;154.20;2252.80;;;;;;5062915;28;19905;-74
2021/12/17 01:02:19;;;;;;;;;;;154.40;2252.80;;;;;;5040453;28;19944;-77
2021/12/17 01:04:49;;;;;;;;;;;154.50;2252.80;;;;;;5062069;28;19904;-80
2021/12/17 01:07:15;;;;;;;;;;;154.50;2252.80;;;;;;5045152;28;19904;-74
2021/12/17 01:09:41;;;;;;;;;;;179.20;2252.80;;;;;;5060469;28;19988;-76
2021/12/17 01:12:07;;;;;;;;;;;179.20;2252.80;;;;;;5038693;28;20011;-76
2021/12/17 01:14:34;;;;;;;;;;;179.20;2252.80;;;;;;5043057;28;19999;-78
2021/12/17 01:17:00;;;;;;;;;;;179.20;2252.80;;;;;;5062542;28;19908;-75
2021/12/17 01:42:50;;;;;;;;;;;179.40;2252.80;;;;;;5064741;28;19970;-78
2021/12/17 01:45:16;;;;;;;;;;;179.40;2252.80;;;;;;5048774;28;20357;-78
2021/12/17 01:47:41;;;;;;;;;;;179.40;2252.80;;;;;;5065076;28;19904;-79
2021/12/17 01:56:03;;;;;;;;;;;179.30;2252.80;;;;;;5063714;28;19958;-74
2021/12/17 02:01:13;;;;;;;;;;;179.20;2252.80;;;;;;5062585;28;20043;-75
2021/12/17 02:03:39;;;;;;;;;;;154.50;2252.80;;;;;;5079841;28;20045;-78
2021/12/17 02:06:05;;;;;;;;;;;179.20;2252.80;;;;;;5063794;28;19990;-75
2021/12/17 02:08:32;;;;;;;;;;;179.20;2252.80;;;;;;5081356;28;19990;-76
2021/12/17 02:32:14;;;;;;;;;;;179.40;2252.80;;;;;;5062770;28;19942;-75
2021/12/17 02:37:14;;;;;;;;;;;179.60;2252.80;;;;;;5063076;28;19912;-77
2021/12/17 02:47:34;;;;;;;;;;;179.50;2252.80;;;;;;5061641;28;19916;-77
2021/12/17 02:50:00;;;;;;;;;;;179.40;2252.80;;;;;;5064083;28;19912;-78
2021/12/17 02:52:26;;;;;;;;;;;179.50;2252.80;;;;;;5064973;28;19953;-76
2021/12/17 02:54:52;;;;;;;;;;;179.40;2252.80;;;;;;5055056;28;19988;-79
2021/12/17 02:57:18;;;;;;;;;;;179.50;2252.80;;;;;;5064105;28;20004;-80
2021/12/17 02:59:43;;;;;;;;;;;179.40;2252.80;;;;;;5064745;28;19948;-79
2021/12/17 03:02:09;;;;;;;;;;;179.40;2252.80;;;;;;5062793;28;20271;-74
2021/12/17 03:04:39;;;;;;;;;;;179.50;2252.80;;;;;;5064483;28;19966;-75
2021/12/17 03:07:05;;;;;;;;;;;179.50;2252.80;;;;;;5064983;28;19910;-77
2021/12/17 03:09:54;;;;;;;;;;;179.80;2252.80;;;;;;5044259;28;20323;-74
2021/12/17 03:12:28;;;;;;;;;;;179.40;2252.80;;;;;;5045073;28;19916;-79
2021/12/17 03:15:06;;;;;;;;;;;179.40;2252.80;;;;;;5047585;28;19923;-79
2021/12/17 03:25:44;;;;;;;;;;;179.30;2252.80;;;;;;5063155;28;19959;-76
2021/12/17 03:28:10;;;;;;;;;;;179.30;2252.80;;;;;;5064727;28;19905;-74
2021/12/17 03:30:36;;;;;;;;;;;179.30;2252.80;;;;;;5062392;28;19999;-79
2021/12/17 03:33:02;;;;;;;;;;;179.20;2252.80;;;;;;5063009;28;19905;-79
2021/12/17 03:35:28;;;;;;;;;;;179.20;2252.80;;;;;;5064433;28;19986;-76
2021/12/17 03:37:53;;;;;;;;;;;179.20;2252.80;;;;;;5034952;28;20350;-76
2021/12/17 03:40:20;;;;;;;;;;;179.30;2252.80;;;;;;5056256;28;19905;-74
2021/12/17 03:42:48;;;;;;;;;;;179.30;2252.80;;;;;;5063541;28;20285;-78
2021/12/17 03:45:15;;;;;;;;;;;179.30;2252.80;;;;;;5061619;28;19999;-78
2021/12/17 03:47:41;;;;;;;;;;;179.40;2252.80;;;;;;5062901;28;19905;-76
2021/12/17 03:50:06;;;;;;;;;;;179.40;2252.80;;;;;;5044797;28;19905;-74
2021/12/17 03:52:32;;;;;;;;;;;154.50;2252.80;;;;;;5046586;28;19927;-76
2021/12/17 03:54:58;;;;;;;;;;;179.40;2252.80;;;;;;5045630;28;19908;-79
2021/12/17 03:57:24;;;;;;;;;;;179.40;2252.80;;;;;;5043328;28;20002;-76
2021/12/17 03:59:49;;;;;;;;;;;179.40;2252.80;;;;;;5061397;28;19905;-77
2021/12/17 04:02:15;;;;;;;;;;;179.40;2252.80;;;;;;5063936;28;19904;-79
2021/12/17 04:04:41;;;;;;;;;;;179.40;2252.80;;;;;;5043359;28;20354;-77
2021/12/17 04:07:06;;;;;;;;;;;179.40;2252.80;;;;;;5063501;28;19905;-77
2021/12/17 04:09:32;;;;;;;;;;;179.40;2252.80;;;;;;5043209;28;20243;-78
2021/12/17 04:12:00;;;;;;;;;;;179.60;2252.80;;;;;;5043117;28;19917;-75
2021/12/17 04:14:34;;;;;;;;;;;179.60;2252.80;;;;;;5063678;28;19908;-75
2021/12/17 04:17:05;;;;;;;;;;;179.70;2252.80;;;;;;5061473;28;19919;-77
2021/12/17 04:19:31;;;;;;;;;;;179.70;2252.80;;;;;;5045597;28;19905;-79
2021/12/17 04:21:57;;;;;;;;;;;179.70;2252.80;;;;;;5061492;28;19959;-74
2021/12/17 04:24:22;;;;;;;;;;;179.70;2252.80;;;;;;5046299;28;20290;-79
2021/12/17 04:26:48;;;;;;;;;;;179.70;2252.80;;;;;;5060657;28;20316;-78
2021/12/17 04:29:14;;;;;;;;;;;179.80;2252.80;;;;;;5060719;28;19915;-78
2021/12/17 04:31:40;;;;;;;;;;;179.70;2252.80;;;;;;5060768;28;19904;-76
2021/12/17 04:34:05;;;;;;;;;;;179.70;2252.80;;;;;;5045894;28;19911;-78
2021/12/17 04:36:34;;;;;;;;;;;179.70;2252.80;;;;;;5048321;28;19962;-79
2021/12/17 04:39:01;;;;;;;;;;;179.60;2252.80;;;;;;5046916;28;19912;-75
2021/12/17 04:44:07;;;;;;;;;;;179.90;2252.80;;;;;;5058976;28;20050;-78
2021/12/17 04:57:28;;;;;;;;;;;179.70;2252.80;;;;;;5058336;28;19931;-75
2021/12/17 05:00:00;;;;;;;;;;;179.80;2252.80;;;;;;5046090;28;19931;-79
2021/12/17 05:02:27;;;;;;;;;;;179.60;2252.80;;;;;;5062447;28;19908;-78
2021/12/17 05:04:53;;;;;;;;;;;179.70;2252.80;;;;;;5045565;28;19963;-75
2021/12/17 05:07:22;;;;;;;;;;;179.80;2252.80;;;;;;5061267;28;19911;-77
2021/12/17 05:10:04;;;;;;;;;;;179.80;2252.80;;;;;;5053199;28;19905;-76
2021/12/17 05:20:54;;;;;;;;;;;179.70;2252.80;;;;;;5063618;28;20007;-78
2021/12/17 05:23:27;;;;;;;;;;;179.60;2252.80;;;;;;5062616;28;19904;-78
2021/12/17 05:25:53;;;;;;;;;;;179.50;2252.80;;;;;;5046744;28;19996;-77
2021/12/17 05:28:19;;;;;;;;;;;179.60;2252.80;;;;;;5048855;28;19947;-79
2021/12/17 05:30:46;;;;;;;;;;;179.70;2252.80;;;;;;5065986;28;19904;-76
2021/12/17 05:33:17;;;;;;;;;;;179.70;2252.80;;;;;;5046593;28;19911;-78
2021/12/17 05:35:42;;;;;;;;;;;179.80;2252.80;;;;;;5063353;28;19986;-77
2021/12/17 05:38:09;;;;;;;;;;;179.40;2252.80;;;;;;5065093;28;20346;-78
2021/12/17 05:40:34;;;;;;;;;;;179.50;2252.80;;;;;;5066497;28;19931;-76
2021/12/17 05:43:02;;;;;;;;;;;179.50;2252.80;;;;;;5060872;28;19966;-78
2021/12/17 05:45:48;;;;;;;;;;;179.50;2252.80;;;;;;5058346;28;19960;-79
2021/12/17 05:48:14;;;;;;;;;;;179.60;2252.80;;;;;;5063626;28;19905;-76
2021/12/17 05:50:41;;;;;;;;;;;179.70;2252.80;;;;;;5061401;28;19909;-75
2021/12/17 05:53:06;;;;;;;;;;;179.60;2252.80;;;;;;5064489;28;19975;-79
2021/12/17 05:55:33;;;;;;;;;;;179.60;2252.80;;;;;;5064423;28;20003;-78
2021/12/17 05:57:58;;;;;;;;;;;179.80;2252.80;;;;;;5063468;28;19909;-76
2021/12/17 06:00:24;;;;;;;;;;;179.70;2252.80;;;;;;5044456;28;19909;-78
2021/12/17 06:02:51;;;;;;;;;;;179.80;2252.80;;;;;;5064004;28;19939;-78
2021/12/17 06:05:17;;;;;;;;;;;179.90;2252.80;;;;;;5046064;28;19904;-78
2021/12/17 06:07:42;;;;;;;;;;;179.90;2252.80;;;;;;5065827;28;19983;-79
2021/12/17 06:10:09;;;;;;;;;;;179.80;2252.80;;;;;;5044872;28;20350;-78
2021/12/17 06:12:36;;;;;;;;;;;179.60;2252.80;;;;;;5031885;28;20562;-78
2021/12/17 06:15:06;;;;;;;;;;;179.70;2252.80;;;;;;5028169;28;19912;-79
2021/12/17 06:17:32;;;;;;;;;;;179.60;2252.80;;;;;;5024380;28;19904;-75
2021/12/17 06:19:58;;;;;;;;;;;179.50;2252.80;;;;;;5045899;28;20363;-75
2021/12/17 06:22:23;;;;;;;;;;;179.70;2252.80;;;;;;5045478;28;20274;-76
2021/12/17 06:24:49;;;;;;;;;;;179.60;2252.80;;;;;;5043240;28;19947;-75
2021/12/17 06:27:16;;;;;;;;;;;179.50;2252.80;;;;;;5045744;28;19928;-76
2021/12/17 06:29:41;;;;;;;;;;;179.70;2252.80;;;;;;5040824;28;20420;-77
2021/12/17 06:32:07;;;;;;;;;;;179.70;2252.80;;;;;;5046566;28;19905;-78
2021/12/17 06:34:33;;;;;;;;;;;179.60;2252.80;;;;;;5043252;28;19905;-74
2021/12/17 06:36:58;;;;;;;;;;;179.60;2252.80;;;;;;5027707;28;19964;-77
2021/12/17 06:39:24;;;;;;;;;;;179.70;2252.80;;;;;;5042401;28;19909;-76
2021/12/17 06:41:50;;;;;;;;;;;179.70;2252.80;;;;;;5025204;28;19909;-77
2021/12/17 06:44:21;;;;;;;;;;;179.70;2252.80;;;;;;5042659;28;20429;-74
2021/12/17 06:47:04;;;;;;;;;;;179.70;2252.80;;;;;;5043004;28;19991;-75
2021/12/17 06:57:52;;;;;;;;;;;179.20;2252.80;;;;;;5041185;28;20047;-74
2021/12/17 07:11:01;;;;;;;;;;;154.30;2252.80;;;;;;5034766;28;19955;-73
2021/12/17 07:21:37;;;;;;;;;;;179.30;2252.80;;;;;;5049244;28;19911;-73
2021/12/17 07:40:06;;;;;;;;;;;154.20;2252.80;;;;;;5003173;28;20085;-74
2021/12/17 07:42:32;;;;;;;;;;;154.10;2252.80;;;;;;4983749;28;19909;-74
2021/12/17 07:44:57;;;;;;;;;;;154.10;2252.80;;;;;;5002203;28;19910;-74
2021/12/17 07:47:24;;;;;;;;;;;154.10;2252.80;;;;;;5000774;28;19906;-73
2021/12/17 07:49:49;;;;;;;;;;;154.10;2252.80;;;;;;4999700;28;19910;-75
2021/12/17 07:52:15;;;;;;;;;;;154.20;2252.80;;;;;;4992271;28;19920;-74
2021/12/17 07:54:40;;;;;;;;;;;154.20;2252.80;;;;;;5002647;28;19920;-78
2021/12/17 07:57:06;;;;;;;;;;;154.30;2252.80;;;;;;4992407;28;19945;-75
2021/12/17 07:59:32;;;;;;;;;;;154.20;2252.80;;;;;;4975696;28;19945;-74
2021/12/17 08:01:57;;;;;;;;;;;154.20;2252.80;;;;;;4975750;28;20363;-74
2021/12/17 08:04:25;;;;;;;;;;;154.20;2252.80;;;;;;4975862;28;20287;-79
2021/12/17 08:06:50;;;;;;;;;;;154.30;2252.80;;;;;;4991940;28;19956;-74
2021/12/17 08:09:16;;;;;;;;;;;154.10;2252.80;;;;;;4996589;28;19960;-77
2021/12/17 08:11:42;;;;;;;;;;;154.20;2252.80;;;;;;5005267;28;20012;-76
2021/12/17 08:14:12;;;;;;;;;;;154.20;2252.80;;;;;;5028300;28;20271;-75
2021/12/17 08:16:57;;;;;;;;;;;154.20;2252.80;;;;;;5015501;28;19913;-79
2021/12/17 08:28:03;;;;;;;;;;;154.30;2252.80;;;;;;5033457;28;19905;-76
2021/12/17 08:32:34;;;;;;;;;;;154.20;2252.80;;;;;;5033238;28;19984;-81
2021/12/17 08:35:00;;;;;;;;;;;154.20;2252.80;;;;;;5033166;28;19951;-79
2021/12/17 08:37:25;;;;;;;;;;;154.20;2252.80;;;;;;5032944;28;20343;-78
2021/12/17 08:39:51;;;;;;;;;;;154.30;2252.80;;;;;;5015077;28;19911;-78
2021/12/17 08:42:16;;;;;;;;;;;154.20;2252.80;;;;;;5014955;28;20354;-79
2021/12/17 08:44:42;;;;;;;;;;;154.20;2252.80;;;;;;5015028;28;19971;-79
2021/12/17 08:47:10;;;;;;;;;;;154.20;2252.80;;;;;;5015658;28;19912;-79
2021/12/17 08:49:39;;;;;;;;;;;154.30;2252.80;;;;;;5032901;28;19905;-79
2021/12/17 08:52:05;;;;;;;;;;;154.40;2252.80;;;;;;5033068;28;19909;-74
2021/12/17 08:54:31;;;;;;;;;;;154.50;2252.80;;;;;;5032674;28;19937;-81
2021/12/17 08:56:56;;;;;;;;;;;154.30;2252.80;;;;;;5014747;28;20346;-76
2021/12/17 08:59:22;;;;;;;;;;;154.30;2252.80;;;;;;5014817;28;19909;-74
2021/12/17 09:01:48;;;;;;;;;;;154.30;2252.80;;;;;;5035730;28;19909;-82
2021/12/17 09:04:13;;;;;;;;;;;154.30;2252.80;;;;;;5043500;28;19912;-75
2021/12/17 09:06:39;;;;;;;;;;;154.20;2252.80;;;;;;5023913;28;19991;-75
2021/12/17 09:09:05;;;;;;;;;;;154.30;2252.80;;;;;;5038943;28;19912;-75
2021/12/17 09:11:31;;;;;;;;;;;154.30;2252.80;;;;;;5036968;28;19963;-74
2021/12/17 09:13:58;;;;;;;;;;;154.40;2252.80;;;;;;5051874;28;19912;-75
2021/12/17 09:16:23;;;;;;;;;;;154.50;2252.80;;;;;;5051955;28;19982;-75
2021/12/17 09:18:50;;;;;;;;;;;154.50;2252.80;;;;;;5052329;28;20358;-74
2021/12/17 09:21:16;;;;;;;;;;;154.40;2252.80;;;;;;5051710;28;19905;-74
2021/12/17 09:23:42;;;;;;;;;;;154.40;2252.80;;;;;;5052004;28;19916;-74
2021/12/17 09:26:09;;;;;;;;;;;154.50;2252.80;;;;;;5051797;28;20027;-74
2021/12/17 09:28:34;;;;;;;;;;;154.40;2252.80;;;;;;5057055;28;19913;-75
2021/12/17 09:31:00;;;;;;;;;;;154.50;2252.80;;;;;;5061631;28;19904;-75
2021/12/17 09:33:26;;;;;;;;;;;154.40;2252.80;;;;;;5042654;28;19912;-74
2021/12/17 09:35:52;;;;;;;;;;;154.40;2252.80;;;;;;5060149;28;19920;-74
2021/12/17 09:38:18;;;;;;;;;;;154.50;2252.80;;;;;;5063023;28;20043;-74
2021/12/17 09:40:44;;;;;;;;;;;179.20;2252.80;;;;;;5043045;28;19916;-74
2021/12/17 09:43:10;;;;;;;;;;;154.50;2252.80;;;;;;5064904;28;20358;-74
2021/12/17 09:45:36;;;;;;;;;;;154.50;2252.80;;;;;;5072022;28;19905;-74
2021/12/17 09:48:02;;;;;;;;;;;154.50;2252.80;;;;;;5071736;28;19950;-74
2021/12/17 09:50:28;;;;;;;;;;;154.50;2252.80;;;;;;5071880;28;19904;-75
2021/12/17 09:52:54;;;;;;;;;;;179.20;2252.80;;;;;;5056025;28;20286;-74
2021/12/17 09:55:19;;;;;;;;;;;179.20;2252.80;;;;;;5057555;28;19950;-75
2021/12/17 09:57:45;;;;;;;;;;;179.20;2252.80;;;;;;5075094;28;19908;-75
2021/12/17 10:00:11;;;;;;;;;;;179.30;2252.80;;;;;;5057824;28;19993;-75
2021/12/17 10:02:36;;;;;;;;;;;179.20;2252.80;;;;;;5056646;28;19904;-75
2021/12/17 10:05:02;;;;;;;;;;;154.50;2252.80;;;;;;5066921;28;19944;-75
2021/12/17 10:07:29;;;;;;;;;;;154.50;2252.80;;;;;;5064763;28;19938;-75
2021/12/17 10:09:59;;;;;;;;;;;154.40;2252.80;;;;;;5046172;28;19912;-75
2021/12/17 10:12:29;;;;;;;;;;;154.50;2252.80;;;;;;5050567;28;19928;-74
2021/12/17 10:15:02;;;;;;;;;;;179.20;2252.80;;;;;;5039626;28;19940;-75
2021/12/17 10:17:28;;;;;;;;;;;179.30;2252.80;;;;;;5019735;28;19928;-75
2021/12/17 10:19:56;;;;;;;;;;;179.20;2252.80;;;;;;5043330;28;19905;-74
2021/12/17 10:22:23;;;;;;;;;;;179.30;2252.80;;;;;;5026847;28;20368;-74
2021/12/17 10:25:02;;;;;;;;;;;179.40;2252.80;;;;;;5045682;28;21302;-75
2021/12/17 10:27:29;;;;;;;;;;;179.40;2252.80;;;;;;5030297;28;20388;-75
2021/12/17 10:29:55;;;;;;;;;;;179.40;2252.80;;;;;;5054980;28;19966;-75
2021/12/17 10:32:22;;;;;;;;;;;179.40;2252.80;;;;;;5054694;28;20007;-76
2021/12/17 10:35:03;;;;;;;;;;;179.40;2252.80;;;;;;5024572;28;19909;-75
2021/12/17 10:37:33;;;;;;;;;;;179.50;2252.80;;;;;;5043279;28;19913;-75
2021/12/17 10:39:59;;;;;;;;;;;179.40;2252.80;;;;;;5045813;28;19904;-76
2021/12/17 10:42:37;;;;;;;;;;;179.40;2252.80;;;;;;5036995;28;20262;-75
2021/12/17 10:45:10;;;;;;;;;;;179.40;2252.80;;;;;;5036547;28;19916;-74
2021/12/17 10:47:37;;;;;;;;;;;179.50;2252.80;;;;;;5047120;28;19916;-74
2021/12/17 10:50:03;;;;;;;;;;;179.50;2252.80;;;;;;5026451;28;19905;-77
2021/12/17 10:52:39;;;;;;;;;;;179.80;2252.80;;;;;;5025335;28;19928;-76
2021/12/17 10:55:16;;;;;;;;;;;179.70;2252.80;;;;;;5019783;28;19988;-75
2021/12/17 10:57:43;;;;;;;;;;;179.70;2252.80;;;;;;5016033;28;19916;-75
2021/12/17 11:00:10;;;;;;;;;;;179.70;2252.80;;;;;;5016399;28;19916;-75
2021/12/17 11:02:37;;;;;;;;;;;179.70;2252.80;;;;;;5034109;28;19999;-75
2021/12/17 11:05:13;;;;;;;;;;;179.70;2252.80;;;;;;5015535;28;20347;-75
2021/12/17 11:07:39;;;;;;;;;;;179.80;2252.80;;;;;;5034052;28;20286;-75
2021/12/17 11:10:05;;;;;;;;;;;179.70;2252.80;;;;;;5033926;28;20003;-75
2021/12/17 11:12:38;;;;;;;;;;;179.80;2252.80;;;;;;5046815;28;19916;-75
2021/12/17 11:15:13;;;;;;;;;;;179.70;2252.80;;;;;;5035685;28;19908;-75
2021/12/17 11:17:40;;;;;;;;;;;179.70;2252.80;;;;;;5053726;28;19944;-75
2021/12/17 11:20:10;;;;;;;;;;;179.80;2252.80;;;;;;5036096;28;19904;-74
2021/12/17 11:22:41;;;;;;;;;;;179.70;2252.80;;;;;;5053572;28;19908;-76
2021/12/17 11:25:07;;;;;;;;;;;179.80;2252.80;;;;;;5035632;28;19905;-74
2021/12/17 11:27:33;;;;;;;;;;;179.70;2252.80;;;;;;5035758;28;19904;-74
2021/12/17 11:30:00;;;;;;;;;;;179.70;2252.80;;;;;;5035957;28;20378;-76
2021/12/17 11:32:26;;;;;;;;;;;179.80;2252.80;;;;;;5035567;28;19951;-76
2021/12/17 11:34:53;;;;;;;;;;;179.70;2252.80;;;;;;5053856;28;20314;-75
2021/12/17 11:37:19;;;;;;;;;;;179.70;2252.80;;;;;;5053308;28;20396;-75
2021/12/17 11:39:50;;;;;;;;;;;179.60;2252.80;;;;;;5053408;28;19955;-74
2021/12/17 11:42:29;;;;;;;;;;;179.70;2252.80;;;;;;5035449;28;19935;-75
2021/12/17 11:47:43;;;;;;;;;;;179.80;2252.80;;;;;;5053401;28;19912;-75
2021/12/17 11:50:10;;;;;;;;;;;179.80;2252.80;;;;;;5052540;28;19909;-75
2021/12/17 11:52:41;;;;;;;;;;;179.80;2252.80;;;;;;5035156;28;20252;-74
2021/12/17 11:55:27;;;;;;;;;;;179.80;2252.80;;;;;;5035316;28;19950;-74
2021/12/17 11:57:56;;;;;;;;;;;179.80;2252.80;;;;;;5034892;28;19915;-75
2021/12/17 12:00:23;;;;;;;;;;;179.80;2252.80;;;;;;5052987;28;19958;-75
2021/12/17 12:02:50;;;;;;;;;;;179.70;2252.80;;;;;;5053003;28;20004;-76
2021/12/17 12:05:33;;;;;;;;;;;179.70;2252.80;;;;;;5057976;28;19908;-76
2021/12/17 12:08:17;;;;;;;;;;;179.70;2252.80;;;;;;5060008;28;19912;-75
2021/12/17 12:10:44;;;;;;;;;;;179.70;2252.80;;;;;;5044962;28;19916;-75
2021/12/17 12:13:09;;;;;;;;;;;179.80;2252.80;;;;;;5052043;28;20574;-75
2021/12/17 12:15:37;;;;;;;;;;;179.80;2252.80;;;;;;5051944;28;19964;-75
2021/12/17 12:18:13;;;;;;;;;;;179.80;2252.80;;;;;;5034310;28;19912;-74
2021/12/17 12:20:38;;;;;;;;;;;179.90;2252.80;;;;;;5049322;28;19912;-74
2021/12/17 12:23:24;;;;;;;;;;;179.90;2252.80;;;;;;5020193;28;19915;-74
2021/12/17 12:26:07;;;;;;;;;;;179.80;2252.80;;;;;;5030175;28;19976;-74
2021/12/17 12:28:45;;;;;;;;;;;179.80;2252.80;;;;;;5031475;28;19911;-75
2021/12/17 12:31:13;;;;;;;;;;;179.80;2252.80;;;;;;5013876;28;19971;-74
2021/12/17 12:33:59;;;;;;;;;;;179.80;2252.80;;;;;;5013563;28;20015;-73
2021/12/17 12:36:43;;;;;;;;;;;179.80;2252.80;;;;;;5030545;28;19916;-76
2021/12/17 12:39:28;;;;;;;;;;;179.80;2252.80;;;;;;5012244;28;19916;-75
2021/12/17 12:42:02;;;;;;;;;;;179.80;2252.80;;;;;;5030209;28;19909;-75
2021/12/17 12:44:37;;;;;;;;;;;179.70;2252.80;;;;;;5032272;28;19924;-75
2021/12/17 12:47:02;;;;;;;;;;;179.80;2252.80;;;;;;5032538;28;19905;-75
2021/12/17 12:49:47;;;;;;;;;;;179.90;2252.80;;;;;;5014322;28;19912;-74
2021/12/17 12:52:21;;;;;;;;;;;179.90;2252.80;;;;;;5030952;28;19905;-73
2021/12/17 12:54:56;;;;;;;;;;;179.70;2252.80;;;;;;5013458;28;20052;-74
2021/12/17 12:57:29;;;;;;;;;;;179.80;2252.80;;;;;;5030907;28;20417;-73
2021/12/17 12:59:57;;;;;;;;;;;179.80;2252.80;;;;;;5029057;28;19948;-74
2021/12/17 13:02:25;;;;;;;;;;;179.80;2252.80;;;;;;5013451;28;19912;-75
2021/12/17 13:04:55;;;;;;;;;;;180.00;2252.80;;;;;;5030393;28;19944;-74
2021/12/17 13:07:31;;;;;;;;;;;180.00;2252.80;;;;;;5031763;28;19971;-75
2021/12/17 13:09:56;;;;;;;;;;;180.00;2252.80;;;;;;5031789;28;19905;-74
2021/12/17 13:12:25;;;;;;;;;;;180.00;2252.80;;;;;;5043563;28;19920;-73
2021/12/17 13:14:55;;;;;;;;;;;179.90;2252.80;;;;;;5033110;28;20381;-76
2021/12/17 13:20:42;;;;;;;;;;;179.90;2252.80;;;;;;5049738;28;19915;-76
2021/12/17 13:23:13;;;;;;;;;;;180.00;2252.80;;;;;;5053439;28;19905;-74
2021/12/17 13:25:39;;;;;;;;;;;180.00;2252.80;;;;;;5032966;28;19915;-77
2021/12/17 13:28:05;;;;;;;;;;;180.00;2252.80;;;;;;5053743;28;19909;-76
2021/12/17 13:30:30;;;;;;;;;;;179.90;2252.80;;;;;;5054878;28;20647;-74
2021/12/17 13:32:56;;;;;;;;;;;180.00;2252.80;;;;;;5036308;28;19911;-75
2021/12/17 13:35:26;;;;;;;;;;;180.00;2252.80;;;;;;5035549;28;20000;-74
2021/12/17 13:37:56;;;;;;;;;;;180.10;2252.80;;;;;;5051902;28;19971;-74
2021/12/17 13:40:23;;;;;;;;;;;180.10;2252.80;;;;;;5054438;28;20366;-74
2021/12/17 13:42:49;;;;;;;;;;;180.10;2252.80;;;;;;5051695;28;19913;-74
2021/12/17 13:45:14;;;;;;;;;;;180.10;2252.80;;;;;;5041534;28;19913;-75
2021/12/17 13:47:41;;;;;;;;;;;204.80;2252.80;;;;;;5053150;28;19916;-75
2021/12/17 13:50:28;;;;;;;;;;;180.10;2252.80;;;;;;5054679;28;19912;-75
2021/12/17 13:52:55;;;;;;;;;;;180.10;2252.80;;;;;;5054381;28;20354;-75
2021/12/17 13:55:32;;;;;;;;;;;180.10;2252.80;;;;;;5036987;28;19913;-76
2021/12/17 13:57:59;;;;;;;;;;;180.10;2252.80;;;;;;5053671;28;19931;-76
2021/12/17 14:00:34;;;;;;;;;;;180.10;2252.80;;;;;;5052284;28;19999;-74
2021/12/17 14:03:00;;;;;;;;;;;204.80;2252.80;;;;;;5055125;28;19905;-75
2021/12/17 14:05:29;;;;;;;;;;;204.80;2252.80;;;;;;5055378;28;20366;-74
2021/12/17 14:07:56;;;;;;;;;;;204.80;2252.80;;;;;;5054851;28;20309;-76
2021/12/17 14:10:23;;;;;;;;;;;204.80;2252.80;;;;;;5054409;28;19908;-75
2021/12/17 14:12:49;;;;;;;;;;;204.90;2252.80;;;;;;5054146;28;19951;-75
2021/12/17 14:15:20;;;;;;;;;;;204.90;2252.80;;;;;;5054640;28;19946;-75
2021/12/17 14:17:47;;;;;;;;;;;205.10;2252.80;;;;;;5054089;28;19908;-75
2021/12/17 14:20:12;;;;;;;;;;;205.00;2252.80;;;;;;5054859;28;19939;-75
2021/12/17 14:22:40;;;;;;;;;;;204.80;2252.80;;;;;;5054497;28;19943;-76
2021/12/17 14:25:24;;;;;;;;;;;204.80;2252.80;;;;;;5054356;28;19950;-73
2021/12/17 14:27:50;;;;;;;;;;;204.80;2252.80;;;;;;5055232;28;19908;-77
2021/12/17 14:30:16;;;;;;;;;;;204.90;2252.80;;;;;;5055227;28;19993;-76
2021/12/17 14:32:42;;;;;;;;;;;204.80;2252.80;;;;;;5055037;28;19912;-75
2021/12/17 14:35:08;;;;;;;;;;;204.90;2252.80;;;;;;5035611;28;19904;-76
2021/12/17 14:37:51;;;;;;;;;;;205.00;2252.80;;;;;;5055061;28;19919;-76
2021/12/17 14:40:38;;;;;;;;;;;180.10;2252.80;;;;;;5054182;28;19996;-74
2021/12/17 14:43:23;;;;;;;;;;;180.10;2252.80;;;;;;5055060;28;19913;-80
2021/12/17 15:04:36;;;;;;;;;;;205.10;2252.80;;;;;;5054119;28;20273;-75
2021/12/17 15:07:02;;;;;;;;;;;205.20;2252.80;;;;;;5054257;28;20357;-75
2021/12/17 15:09:31;;;;;;;;;;;205.00;2252.80;;;;;;5042077;28;19944;-75
2021/12/17 15:12:01;;;;;;;;;;;205.30;2252.80;;;;;;5035887;28;19924;-74
2021/12/17 15:14:26;;;;;;;;;;;205.40;2252.80;;;;;;5040502;28;19908;-75
2021/12/17 15:16:53;;;;;;;;;;;205.50;2252.80;;;;;;5048580;28;19923;-80
2021/12/17 15:19:18;;;;;;;;;;;205.40;2252.80;;;;;;5053687;28;19904;-76
2021/12/17 15:21:44;;;;;;;;;;;205.40;2252.80;;;;;;5053669;28;19905;-76
2021/12/17 15:24:10;;;;;;;;;;;205.50;2252.80;;;;;;5053643;28;20024;-75
2021/12/17 15:26:35;;;;;;;;;;;205.40;2252.80;;;;;;5053477;28;19904;-77
2021/12/17 15:29:01;;;;;;;;;;;205.30;2252.80;;;;;;5054023;28;19904;-75
2021/12/17 15:31:27;;;;;;;;;;;205.10;2252.80;;;;;;5053389;28;19905;-75
2021/12/17 15:33:52;;;;;;;;;;;205.10;2252.80;;;;;;5035847;28;19935;-75
2021/12/17 15:36:18;;;;;;;;;;;205.00;2252.80;;;;;;5035821;28;19912;-76
2021/12/17 15:38:43;;;;;;;;;;;205.00;2252.80;;;;;;5035819;28;19999;-75
2021/12/17 15:41:09;;;;;;;;;;;205.10;2252.80;;;;;;5052748;28;19959;-77
2021/12/17 15:43:35;;;;;;;;;;;205.10;2252.80;;;;;;5035601;28;19920;-75
2021/12/17 15:46:01;;;;;;;;;;;205.30;2252.80;;;;;;5053398;28;19966;-77
2021/12/17 15:48:26;;;;;;;;;;;205.40;2252.80;;;;;;5045038;28;19905;-77
2021/12/17 15:50:52;;;;;;;;;;;205.50;2252.80;;;;;;5053197;28;19912;-76
2021/12/17 15:53:18;;;;;;;;;;;205.70;2252.80;;;;;;5055076;28;19926;-81
2021/12/17 15:55:43;;;;;;;;;;;205.60;2252.80;;;;;;5073283;28;19919;-80
2021/12/17 15:58:09;;;;;;;;;;;205.50;2252.80;;;;;;5072790;28;19993;-77
2021/12/17 16:00:36;;;;;;;;;;;205.50;2252.80;;;;;;5073139;28;19909;-74
2021/12/17 16:03:04;;;;;;;;;;;205.40;2252.80;;;;;;5055612;28;20354;-82
2021/12/17 16:05:31;;;;;;;;;;;205.40;2252.80;;;;;;5055370;28;19904;-76
2021/12/17 16:07:57;;;;;;;;;;;205.50;2252.80;;;;;;5072874;28;19936;-74
2021/12/17 16:21:05;;;;;;;;;;;205.30;2252.80;;;;;;5073131;28;20049;-75
2021/12/17 16:23:33;;;;;;;;;;;205.30;2252.80;;;;;;5032995;28;19966;-75
2021/12/17 16:25:59;;;;;;;;;;;205.30;2252.80;;;;;;5032677;28;19905;-76
2021/12/17 16:28:26;;;;;;;;;;;205.20;2252.80;;;;;;5014474;28;20386;-75
2021/12/17 16:30:52;;;;;;;;;;;205.20;2252.80;;;;;;5032775;28;19921;-77
2021/12/17 16:33:18;;;;;;;;;;;205.10;2252.80;;;;;;5014109;28;19967;-76
2021/12/17 16:35:43;;;;;;;;;;;205.10;2252.80;;;;;;5014949;28;20008;-76
2021/12/17 16:38:09;;;;;;;;;;;205.10;2252.80;;;;;;5014932;28;19940;-75
2021/12/17 16:40:36;;;;;;;;;;;205.10;2252.80;;;;;;5014616;28;19915;-75
2021/12/17 16:43:04;;;;;;;;;;;205.00;2252.80;;;;;;5014902;28;20260;-76
2021/12/17 16:45:40;;;;;;;;;;;205.00;2252.80;;;;;;5014813;28;19906;-77
2021/12/17 16:48:06;;;;;;;;;;;205.00;2252.80;;;;;;5015202;28;19916;-76
2021/12/17 16:50:31;;;;;;;;;;;205.00;2252.80;;;;;;5032665;28;19905;-80
2021/12/17 16:52:58;;;;;;;;;;;180.10;2252.80;;;;;;5032455;28;19905;-75
2021/12/17 16:55:24;;;;;;;;;;;204.80;2252.80;;;;;;5014447;28;19905;-78
2021/12/17 16:57:50;;;;;;;;;;;180.10;2252.80;;;;;;5032484;28;20458;-77
2021/12/17 17:00:15;;;;;;;;;;;204.90;2252.80;;;;;;5041013;28;20488;-76
2021/12/17 17:02:41;;;;;;;;;;;204.90;2252.80;;;;;;5053622;28;19909;-77
2021/12/17 17:05:07;;;;;;;;;;;180.10;2252.80;;;;;;5040262;28;20393;-76
2021/12/17 17:07:33;;;;;;;;;;;180.00;2252.80;;;;;;5057825;28;19916;-76
2021/12/17 17:09:58;;;;;;;;;;;180.00;2252.80;;;;;;5065349;28;20363;-76
2021/12/17 17:12:26;;;;;;;;;;;179.90;2252.80;;;;;;5067047;28;19917;-74
2021/12/17 17:14:52;;;;;;;;;;;180.10;2252.80;;;;;;5064626;28;19963;-78
2021/12/17 17:17:17;;;;;;;;;;;180.10;2252.80;;;;;;5047688;28;19956;-78
2021/12/17 17:19:43;;;;;;;;;;;180.10;2252.80;;;;;;5061336;28;19917;-76
2021/12/17 17:22:10;;;;;;;;;;;204.80;2252.80;;;;;;5043869;28;19915;-77